Time;durP1;ratioP1;P1;durP2;ratioP2;P2;SDS_P1;SDS_P2;PMS_P1;PMS_P2;Temp;Humidity;BMP_temperature;BMP_pressure;BME280_temperature;BME280_humidity;BME280_pressure;Samples;Min_cycle;Max_cycle;Signal;HPM_P1;HPM_P2
2023/12/29 00:01:21;;;;;;;7.43;3.30;;;;;;;;;;5029482;28;20219;-78
2023/12/29 00:03:48;;;;;;;4.70;2.27;;;;;;;;;;5046053;28;20194;-78
2023/12/29 00:06:14;;;;;;;6.33;2.50;;;;;;;;;;5012958;28;20211;-79
2023/12/29 00:08:41;;;;;;;5.97;2.23;;;;;;;;;;5047065;28;20278;-79
2023/12/29 00:11:15;;;;;;;5.77;2.27;;;;;;;;;;5047197;28;20193;-80
2023/12/29 00:13:42;;;;;;;5.10;2.70;;;;;;;;;;5029211;28;20202;-81
2023/12/29 00:16:08;;;;;;;5.10;2.30;;;;;;;;;;5029092;28;20581;-77
2023/12/29 00:18:36;;;;;;;3.60;2.30;;;;;;;;;;5047055;28;20187;-80
2023/12/29 00:21:04;;;;;;;5.50;2.40;;;;;;;;;;5045968;28;20545;-81
2023/12/29 00:23:33;;;;;;;10.23;2.73;;;;;;;;;;5012793;28;20233;-79
2023/12/29 00:25:59;;;;;;;6.30;2.50;;;;;;;;;;5045546;28;20226;-74
2023/12/29 00:28:26;;;;;;;7.07;2.60;;;;;;;;;;5045567;28;20660;-78
2023/12/29 00:30:53;;;;;;;6.43;3.07;;;;;;;;;;5012730;28;20202;-73
2023/12/29 00:33:28;;;;;;;4.33;2.57;;;;;;;;;;5030318;28;20297;-73
2023/12/29 00:35:57;;;;;;;7.90;2.80;;;;;;;;;;5029321;28;20238;-74
2023/12/29 00:38:25;;;;;;;6.00;2.73;;;;;;;;;;5045455;28;20318;-74
2023/12/29 00:40:52;;;;;;;5.00;2.70;;;;;;;;;;5012217;28;20187;-75
2023/12/29 00:43:19;;;;;;;5.03;2.43;;;;;;;;;;5045179;28;20289;-77
2023/12/29 00:45:46;;;;;;;6.90;2.93;;;;;;;;;;5028681;28;20203;-74
2023/12/29 00:48:14;;;;;;;5.23;2.10;;;;;;;;;;5045418;28;20190;-75
2023/12/29 00:50:41;;;;;;;5.23;2.50;;;;;;;;;;5028754;28;20215;-74
2023/12/29 00:53:07;;;;;;;7.40;2.93;;;;;;;;;;5046746;28;20199;-76
2023/12/29 00:55:34;;;;;;;5.83;2.43;;;;;;;;;;5033498;28;20238;-73
2023/12/29 00:58:01;;;;;;;9.10;2.73;;;;;;;;;;5044980;28;20183;-78
2023/12/29 01:00:28;;;;;;;6.37;2.40;;;;;;;;;;5028645;28;20525;-76
2023/12/29 01:02:55;;;;;;;5.43;2.70;;;;;;;;;;5028597;28;20194;-78
2023/12/29 01:05:21;;;;;;;6.00;2.90;;;;;;;;;;5028755;28;20186;-75
2023/12/29 01:07:48;;;;;;;4.07;2.07;;;;;;;;;;5044722;28;20190;-74
2023/12/29 01:10:15;;;;;;;7.93;2.77;;;;;;;;;;5045154;28;20645;-76
2023/12/29 01:49:18;;;;;;;4.37;2.33;;;;;;;;;;5045881;28;20662;-79
2023/12/29 01:51:46;;;;;;;5.87;2.80;;;;;;;;;;5043783;28;20638;-73
2023/12/29 01:54:13;;;;;;;5.90;2.87;;;;;;;;;;5032349;28;20186;-73
2023/12/29 01:56:40;;;;;;;6.03;2.83;;;;;;;;;;5045596;28;20206;-75
2023/12/29 01:59:06;;;;;;;5.27;2.20;;;;;;;;;;5027421;28;20194;-77
2023/12/29 02:01:45;;;;;;;4.00;2.67;;;;;;;;;;5028901;28;20545;-76
2023/12/29 02:04:12;;;;;;;4.83;1.87;;;;;;;;;;5043719;28;20628;-78
2023/12/29 02:06:39;;;;;;;4.37;2.80;;;;;;;;;;5045201;28;20186;-76
2023/12/29 02:09:06;;;;;;;3.83;2.20;;;;;;;;;;5027306;28;20222;-75
2023/12/29 02:11:33;;;;;;;6.37;1.90;;;;;;;;;;5027275;28;20190;-75
2023/12/29 02:14:01;;;;;;;4.33;2.47;;;;;;;;;;5043800;28;20187;-81
2023/12/29 02:16:34;;;;;;;3.93;2.17;;;;;;;;;;5043531;28;20237;-77
2023/12/29 02:19:37;;;;;;;2.37;1.67;;;;;;;;;;5043687;28;20612;-73
2023/12/29 02:22:05;;;;;;;4.23;2.30;;;;;;;;;;5045239;28;20199;-75
2023/12/29 02:24:34;;;;;;;5.67;2.00;;;;;;;;;;5027048;28;20217;-76
2023/12/29 02:27:06;;;;;;;2.97;1.80;;;;;;;;;;5027352;28;20198;-77
2023/12/29 02:30:06;;;;;;;7.80;3.30;;;;;;;;;;5043173;28;20174;-74
2023/12/29 02:32:33;;;;;;;6.80;2.67;;;;;;;;;;5043331;28;20549;-77
2023/12/29 02:35:00;;;;;;;3.73;1.70;;;;;;;;;;5010544;28;20261;-75
2023/12/29 02:37:27;;;;;;;4.43;2.33;;;;;;;;;;5044557;28;20218;-78
2023/12/29 02:39:54;;;;;;;3.57;2.00;;;;;;;;;;5043311;28;20202;-78
2023/12/29 02:42:39;;;;;;;4.17;2.43;;;;;;;;;;5029074;28;20171;-76
2023/12/29 02:45:05;;;;;;;5.83;2.43;;;;;;;;;;5042909;28;20221;-73
2023/12/29 02:47:32;;;;;;;3.73;2.43;;;;;;;;;;5043168;28;20692;-78
2023/12/29 02:49:59;;;;;;;4.00;1.60;;;;;;;;;;5052540;28;20183;-90
2023/12/29 02:52:26;;;;;;;4.70;2.10;;;;;;;;;;5037043;28;20194;-76
2023/12/29 02:55:10;;;;;;;5.73;2.23;;;;;;;;;;5038560;28;20522;-89
2023/12/29 02:57:37;;;;;;;4.73;2.30;;;;;;;;;;5036374;28;20215;-88
2023/12/29 03:00:04;;;;;;;3.80;1.67;;;;;;;;;;5036596;28;20186;-86
2023/12/29 03:02:32;;;;;;;5.30;2.27;;;;;;;;;;5053784;28;20182;-88
2023/12/29 03:04:59;;;;;;;5.43;2.77;;;;;;;;;;5052590;28;20248;-88
2023/12/29 03:07:26;;;;;;;5.50;2.27;;;;;;;;;;5052574;28;20189;-89
2023/12/29 03:09:52;;;;;;;4.60;2.43;;;;;;;;;;5054238;28;20194;-90
2023/12/29 03:12:19;;;;;;;3.33;2.13;;;;;;;;;;5052683;28;20562;-89
2023/12/29 03:14:47;;;;;;;2.83;1.90;;;;;;;;;;5052598;28;20240;-86
2023/12/29 03:17:13;;;;;;;7.43;2.00;;;;;;;;;;5052126;28;20214;-90
2023/12/29 03:19:40;;;;;;;3.17;1.50;;;;;;;;;;5035991;28;20193;-86
2023/12/29 03:22:07;;;;;;;3.33;1.47;;;;;;;;;;5053833;28;20195;-87
2023/12/29 03:24:36;;;;;;;4.57;1.93;;;;;;;;;;5052466;28;20570;-89
2023/12/29 03:27:03;;;;;;;5.80;2.27;;;;;;;;;;5052905;28;20186;-87
2023/12/29 03:29:30;;;;;;;2.57;1.20;;;;;;;;;;5053246;28;20233;-85
2023/12/29 03:31:56;;;;;;;4.20;2.23;;;;;;;;;;5053536;28;20240;-87
2023/12/29 03:34:23;;;;;;;4.20;2.00;;;;;;;;;;5052448;28;20183;-88
2023/12/29 03:37:09;;;;;;;7.07;2.40;;;;;;;;;;5052539;28;20252;-87
2023/12/29 03:39:36;;;;;;;4.77;2.30;;;;;;;;;;5052747;28;20610;-87
2023/12/29 03:42:03;;;;;;;3.70;2.17;;;;;;;;;;5053120;28;20210;-86
2023/12/29 03:44:30;;;;;;;3.70;1.70;;;;;;;;;;5053027;28;20186;-88
2023/12/29 03:46:57;;;;;;;4.10;2.10;;;;;;;;;;5036873;28;20538;-86
2023/12/29 03:49:23;;;;;;;3.97;2.20;;;;;;;;;;5052444;28;20182;-86
2023/12/29 03:51:50;;;;;;;3.10;1.20;;;;;;;;;;5051585;28;20310;-87
2023/12/29 03:54:18;;;;;;;4.67;1.83;;;;;;;;;;5035496;28;20281;-88
2023/12/29 03:56:45;;;;;;;3.93;2.13;;;;;;;;;;5052023;28;20214;-89
2023/12/29 03:59:12;;;;;;;6.00;1.83;;;;;;;;;;5053277;28;20240;-87
2023/12/29 04:01:39;;;;;;;4.37;1.30;;;;;;;;;;5056879;28;20187;-87
2023/12/29 04:04:06;;;;;;;4.20;1.80;;;;;;;;;;5055680;28;20252;-88
2023/12/29 04:06:33;;;;;;;1.77;0.93;;;;;;;;;;5057242;28;20575;-85
2023/12/29 04:08:59;;;;;;;6.00;2.33;;;;;;;;;;5039760;28;20198;-88
2023/12/29 04:11:26;;;;;;;3.50;1.57;;;;;;;;;;5039287;28;20191;-88
2023/12/29 04:13:54;;;;;;;4.43;2.20;;;;;;;;;;5056613;28;20181;-87
2023/12/29 04:16:21;;;;;;;6.17;2.07;;;;;;;;;;5056437;28;20225;-87
2023/12/29 04:18:47;;;;;;;3.30;1.17;;;;;;;;;;5055805;28;20183;-87
2023/12/29 04:21:14;;;;;;;4.17;2.00;;;;;;;;;;5055358;28;20199;-85
2023/12/29 04:23:44;;;;;;;2.70;1.60;;;;;;;;;;5056616;28;20206;-87
2023/12/29 04:26:11;;;;;;;5.87;2.10;;;;;;;;;;5056297;28;20179;-83
2023/12/29 04:28:37;;;;;;;5.23;1.73;;;;;;;;;;5038604;28;20210;-84
2023/12/29 04:31:04;;;;;;;3.80;2.00;;;;;;;;;;5038561;28;20661;-84
2023/12/29 04:33:31;;;;;;;3.17;1.53;;;;;;;;;;5055600;28;20618;-85
2023/12/29 04:35:57;;;;;;;3.93;1.70;;;;;;;;;;5054799;28;20185;-83
2023/12/29 04:38:24;;;;;;;4.23;2.10;;;;;;;;;;5056267;28;20186;-85
2023/12/29 04:40:51;;;;;;;2.03;1.47;;;;;;;;;;5021461;28;20293;-85
2023/12/29 04:43:17;;;;;;;2.83;1.27;;;;;;;;;;5054755;28;20619;-84
2023/12/29 04:45:44;;;;;;;4.37;1.77;;;;;;;;;;5054475;28;20191;-83
2023/12/29 04:48:12;;;;;;;5.77;2.00;;;;;;;;;;5038096;28;20183;-84
2023/12/29 04:50:38;;;;;;;6.13;2.10;;;;;;;;;;5054288;28;20230;-86
2023/12/29 04:53:05;;;;;;;3.33;1.90;;;;;;;;;;5054364;28;20187;-83
2023/12/29 04:55:49;;;;;;;3.20;1.87;;;;;;;;;;5055311;28;20630;-84
2023/12/29 04:58:16;;;;;;;4.87;2.00;;;;;;;;;;5055231;28;20696;-83
2023/12/29 05:00:43;;;;;;;4.33;2.10;;;;;;;;;;5054386;28;20273;-84
2023/12/29 05:03:10;;;;;;;6.20;1.53;;;;;;;;;;5054761;28;20269;-84
2023/12/29 05:05:37;;;;;;;6.47;2.20;;;;;;;;;;5037662;28;20533;-82
2023/12/29 05:08:04;;;;;;;7.43;1.80;;;;;;;;;;5054350;28;20193;-85
2023/12/29 05:10:30;;;;;;;3.67;1.90;;;;;;;;;;5021697;28;20218;-84
2023/12/29 05:12:57;;;;;;;3.67;2.23;;;;;;;;;;5055114;28;20183;-84
2023/12/29 05:15:41;;;;;;;2.20;1.43;;;;;;;;;;5055611;28;20177;-85
2023/12/29 05:18:08;;;;;;;5.50;2.20;;;;;;;;;;5054870;28;20194;-85
2023/12/29 05:20:35;;;;;;;4.40;1.87;;;;;;;;;;5054391;28;20193;-86
2023/12/29 05:23:01;;;;;;;5.93;2.23;;;;;;;;;;5053965;28;20612;-84
2023/12/29 05:25:28;;;;;;;5.10;1.20;;;;;;;;;;5055486;28;20526;-83
2023/12/29 05:28:12;;;;;;;3.07;1.50;;;;;;;;;;5054177;28;20158;-86
2023/12/29 05:30:38;;;;;;;2.53;1.60;;;;;;;;;;5037303;28;20278;-85
2023/12/29 05:33:05;;;;;;;3.17;1.23;;;;;;;;;;5037702;28;20349;-88
2023/12/29 05:35:32;;;;;;;4.47;1.77;;;;;;;;;;5053663;28;20194;-85
2023/12/29 05:37:59;;;;;;;3.60;1.57;;;;;;;;;;5054581;28;20688;-85
2023/12/29 05:40:43;;;;;;;2.90;1.53;;;;;;;;;;5053825;28;20170;-86
2023/12/29 05:43:10;;;;;;;3.93;1.50;;;;;;;;;;5053459;28;20657;-85
2023/12/29 05:45:37;;;;;;;1.40;0.77;;;;;;;;;;5053415;28;20222;-85
2023/12/29 05:48:04;;;;;;;3.93;1.70;;;;;;;;;;5036909;28;20187;-86
2023/12/29 05:50:31;;;;;;;5.87;1.73;;;;;;;;;;5053869;28;20218;-85
2023/12/29 05:52:57;;;;;;;4.13;1.40;;;;;;;;;;5054700;28;20183;-86
2023/12/29 05:55:24;;;;;;;4.43;1.77;;;;;;;;;;5036734;28;20282;-85
2023/12/29 05:57:51;;;;;;;4.83;2.50;;;;;;;;;;5053045;28;20209;-84
2023/12/29 06:00:36;;;;;;;3.13;1.30;;;;;;;;;;5039784;28;20675;-85
2023/12/29 06:03:04;;;;;;;6.97;2.10;;;;;;;;;;5054451;28;20313;-84
2023/12/29 06:05:48;;;;;;;3.47;1.70;;;;;;;;;;5053781;28;20162;-83
2023/12/29 06:08:15;;;;;;;2.57;1.60;;;;;;;;;;5054382;28;20213;-86
2023/12/29 06:10:42;;;;;;;3.83;1.90;;;;;;;;;;5052944;28;20241;-84
2023/12/29 06:13:08;;;;;;;2.67;1.50;;;;;;;;;;5037080;28;20507;-84
2023/12/29 06:15:36;;;;;;;2.17;1.50;;;;;;;;;;5036956;28;20534;-85
2023/12/29 06:18:20;;;;;;;2.93;1.73;;;;;;;;;;5054021;28;20198;-85
2023/12/29 06:20:46;;;;;;;4.27;2.20;;;;;;;;;;5036450;28;20244;-84
2023/12/29 06:23:14;;;;;;;4.60;2.67;;;;;;;;;;5052155;28;20221;-84
2023/12/29 06:25:41;;;;;;;7.40;2.70;;;;;;;;;;5054729;28;20187;-86
2023/12/29 06:28:08;;;;;;;4.27;2.10;;;;;;;;;;5036462;28;20664;-84
2023/12/29 06:30:52;;;;;;;6.17;2.27;;;;;;;;;;5053292;28;20167;-85
2023/12/29 06:33:21;;;;;;;5.40;1.53;;;;;;;;;;5052532;28;20377;-86
2023/12/29 06:35:48;;;;;;;4.23;1.63;;;;;;;;;;5053373;28;20261;-77
2023/12/29 06:38:15;;;;;;;3.50;1.47;;;;;;;;;;5054043;28;20213;-76
2023/12/29 06:40:42;;;;;;;2.17;1.70;;;;;;;;;;5052934;28;20267;-74
2023/12/29 06:43:09;;;;;;;3.07;1.50;;;;;;;;;;5052787;28;20182;-74
2023/12/29 06:45:36;;;;;;;3.80;1.87;;;;;;;;;;5053796;28;20190;-74
2023/12/29 06:48:03;;;;;;;4.33;1.63;;;;;;;;;;5053618;28;20194;-76
2023/12/29 06:50:31;;;;;;;2.50;1.30;;;;;;;;;;5054336;28;20222;-82
2023/12/29 06:52:57;;;;;;;5.73;2.57;;;;;;;;;;5035989;28;20183;-82
2023/12/29 06:55:25;;;;;;;2.57;1.63;;;;;;;;;;5052861;28;20245;-81
2023/12/29 06:58:09;;;;;;;6.83;1.80;;;;;;;;;;5053286;28;20187;-81
2023/12/29 07:00:36;;;;;;;4.17;2.27;;;;;;;;;;5035924;28;20507;-75
2023/12/29 07:03:03;;;;;;;5.23;1.53;;;;;;;;;;5035979;28;20186;-76
2023/12/29 07:05:30;;;;;;;4.47;2.10;;;;;;;;;;5053622;28;20248;-74
2023/12/29 07:07:57;;;;;;;7.10;2.70;;;;;;;;;;5053677;28;20557;-74
2023/12/29 07:10:24;;;;;;;3.37;2.13;;;;;;;;;;5052780;28;20194;-78
2023/12/29 07:12:51;;;;;;;4.67;2.07;;;;;;;;;;5052605;28;20642;-72
2023/12/29 07:15:18;;;;;;;5.03;2.10;;;;;;;;;;5052114;28;20183;-72
2023/12/29 07:17:45;;;;;;;5.10;2.50;;;;;;;;;;5036136;28;20199;-72
2023/12/29 07:20:17;;;;;;;4.87;2.20;;;;;;;;;;5053007;28;20170;-72
2023/12/29 07:22:45;;;;;;;3.57;1.97;;;;;;;;;;5019593;28;20289;-71
2023/12/29 07:25:13;;;;;;;3.67;1.93;;;;;;;;;;5051934;28;20526;-72
2023/12/29 07:27:40;;;;;;;5.40;2.27;;;;;;;;;;5035822;28;20201;-72
2023/12/29 07:30:07;;;;;;;2.93;1.30;;;;;;;;;;5036233;28;20198;-78
2023/12/29 07:32:51;;;;;;;3.17;1.97;;;;;;;;;;5041401;28;20163;-79
2023/12/29 07:35:19;;;;;;;4.07;1.93;;;;;;;;;;5040846;28;20187;-84
2023/12/29 07:37:47;;;;;;;4.83;2.10;;;;;;;;;;5057093;28;20226;-78
2023/12/29 07:40:13;;;;;;;7.73;2.33;;;;;;;;;;5057543;28;20189;-85
2023/12/29 07:42:41;;;;;;;2.07;1.27;;;;;;;;;;5056196;28;20244;-79
2023/12/29 07:45:09;;;;;;;4.77;2.50;;;;;;;;;;5040553;28;20689;-81
2023/12/29 07:47:36;;;;;;;5.00;1.80;;;;;;;;;;5056336;28;20616;-78
2023/12/29 07:50:02;;;;;;;4.87;2.13;;;;;;;;;;5040068;28;20197;-78
2023/12/29 07:52:30;;;;;;;3.27;1.60;;;;;;;;;;5039363;28;20183;-79
2023/12/29 07:54:56;;;;;;;8.57;1.50;;;;;;;;;;5023142;28;20190;-78
2023/12/29 07:57:23;;;;;;;8.37;2.57;;;;;;;;;;5056561;28;20249;-82
2023/12/29 07:59:50;;;;;;;4.10;2.00;;;;;;;;;;5056366;28;20198;-80
2023/12/29 08:06:18;;;;;;;4.27;1.50;;;;;;;;;;5056914;28;20154;-79
2023/12/29 08:08:45;;;;;;;3.10;1.50;;;;;;;;;;5057069;28;20214;-80
2023/12/29 08:11:13;;;;;;;5.07;2.60;;;;;;;;;;5039409;28;20668;-80
2023/12/29 08:13:40;;;;;;;4.70;1.90;;;;;;;;;;5039881;28;20214;-78
2023/12/29 08:16:08;;;;;;;4.07;1.67;;;;;;;;;;5055900;28;20270;-78
2023/12/29 08:18:35;;;;;;;3.73;2.00;;;;;;;;;;5055526;28;20203;-78
2023/12/29 08:21:02;;;;;;;3.50;1.80;;;;;;;;;;5038990;28;20193;-81
2023/12/29 08:23:29;;;;;;;5.80;1.97;;;;;;;;;;5056768;28;20214;-78
2023/12/29 08:25:56;;;;;;;2.73;1.67;;;;;;;;;;5055420;28;20229;-81
2023/12/29 08:28:23;;;;;;;3.07;1.67;;;;;;;;;;5039311;28;20187;-79
2023/12/29 08:30:50;;;;;;;2.67;1.83;;;;;;;;;;5056390;28;20217;-81
2023/12/29 08:33:17;;;;;;;4.97;1.70;;;;;;;;;;5055521;28;20191;-79
2023/12/29 08:35:44;;;;;;;5.53;2.60;;;;;;;;;;5056643;28;20554;-79
2023/12/29 08:38:11;;;;;;;6.93;1.30;;;;;;;;;;5039329;28;20215;-82
2023/12/29 08:40:38;;;;;;;3.97;2.00;;;;;;;;;;5056272;28;20197;-80
2023/12/29 08:43:05;;;;;;;2.63;1.87;;;;;;;;;;5038812;28;20285;-78
2023/12/29 08:45:31;;;;;;;2.53;1.37;;;;;;;;;;5054117;28;20572;-82
2023/12/29 08:47:58;;;;;;;2.57;1.53;;;;;;;;;;5056492;28;20266;-79
2023/12/29 08:50:25;;;;;;;4.33;2.53;;;;;;;;;;5056150;28;20214;-79
2023/12/29 08:52:52;;;;;;;3.73;1.63;;;;;;;;;;5055716;28;20179;-77
2023/12/29 08:55:19;;;;;;;5.87;2.30;;;;;;;;;;5055941;28;20178;-80
2023/12/29 08:57:46;;;;;;;7.07;2.13;;;;;;;;;;5054449;28;20226;-78
2023/12/29 09:00:13;;;;;;;4.23;1.67;;;;;;;;;;5038844;28;20245;-78
2023/12/29 09:02:40;;;;;;;5.17;1.90;;;;;;;;;;5058174;28;20280;-79
2023/12/29 09:05:07;;;;;;;6.13;2.47;;;;;;;;;;5059025;28;20260;-79
2023/12/29 09:07:34;;;;;;;4.17;1.77;;;;;;;;;;5058408;28;20202;-80
2023/12/29 09:10:18;;;;;;;3.37;2.00;;;;;;;;;;5075896;28;20155;-81
2023/12/29 09:12:45;;;;;;;3.83;2.40;;;;;;;;;;5058360;28;20182;-82
2023/12/29 09:15:12;;;;;;;7.33;2.40;;;;;;;;;;5075494;28;20265;-80
2023/12/29 09:17:39;;;;;;;6.07;2.43;;;;;;;;;;5075666;28;20600;-81
2023/12/29 09:20:06;;;;;;;3.80;1.53;;;;;;;;;;5057946;28;20178;-82
2023/12/29 09:22:37;;;;;;;3.53;1.47;;;;;;;;;;5074650;28;20225;-82
2023/12/29 09:25:04;;;;;;;3.43;1.80;;;;;;;;;;5075366;28;20186;-79
2023/12/29 09:27:31;;;;;;;2.03;1.17;;;;;;;;;;5074128;28;20242;-82
2023/12/29 09:29:58;;;;;;;8.00;3.03;;;;;;;;;;5073852;28;20364;-85
2023/12/29 09:32:24;;;;;;;3.93;2.20;;;;;;;;;;5075088;28;20197;-82
2023/12/29 09:34:51;;;;;;;6.30;2.10;;;;;;;;;;5075212;28;20186;-80
2023/12/29 09:37:18;;;;;;;4.63;1.77;;;;;;;;;;5073904;28;20190;-85
2023/12/29 09:39:45;;;;;;;2.50;1.50;;;;;;;;;;5075503;28;20221;-82
2023/12/29 09:42:17;;;;;;;4.83;1.90;;;;;;;;;;5074842;28;20182;-87
2023/12/29 09:44:44;;;;;;;5.73;2.50;;;;;;;;;;5057818;28;20178;-78
2023/12/29 09:47:11;;;;;;;2.83;1.77;;;;;;;;;;5072330;28;20221;-77
2023/12/29 09:49:41;;;;;;;2.50;1.87;;;;;;;;;;5053109;28;20257;-78
2023/12/29 09:52:09;;;;;;;3.10;1.83;;;;;;;;;;5065480;28;20190;-77
2023/12/29 09:54:37;;;;;;;4.17;2.20;;;;;;;;;;5043094;28;20658;-76
2023/12/29 09:57:04;;;;;;;5.57;2.43;;;;;;;;;;5026993;28;20206;-77
2023/12/29 09:59:32;;;;;;;2.93;2.00;;;;;;;;;;5043667;28;20191;-77
2023/12/29 10:01:58;;;;;;;3.27;2.13;;;;;;;;;;5027387;28;20884;-76
2023/12/29 10:04:26;;;;;;;5.03;3.10;;;;;;;;;;5027891;28;20199;-77
2023/12/29 10:06:52;;;;;;;5.87;2.93;;;;;;;;;;5028309;28;20277;-76
2023/12/29 10:09:25;;;;;;;3.97;2.60;;;;;;;;;;5070621;28;20570;-75
2023/12/29 10:11:52;;;;;;;5.93;2.73;;;;;;;;;;5043801;28;20229;-76
2023/12/29 10:18:34;;;;;;;5.67;2.63;;;;;;;;;;5044713;28;20699;-80
2023/12/29 10:21:02;;;;;;;3.77;2.60;;;;;;;;;;5043818;28;20742;-76
2023/12/29 10:23:36;;;;;;;4.97;3.43;;;;;;;;;;5027126;28;20215;-77
2023/12/29 10:26:06;;;;;;;4.90;3.10;;;;;;;;;;5027601;28;20518;-78
2023/12/29 10:28:33;;;;;;;5.83;2.77;;;;;;;;;;5043428;28;20190;-80
2023/12/29 10:31:00;;;;;;;4.87;2.90;;;;;;;;;;5043132;28;20201;-81
2023/12/29 10:33:31;;;;;;;4.70;2.80;;;;;;;;;;5043677;28;20202;-82
2023/12/29 10:36:07;;;;;;;3.93;2.47;;;;;;;;;;5044575;28;20191;-81
2023/12/29 10:38:34;;;;;;;3.10;1.60;;;;;;;;;;5036051;28;20209;-79
2023/12/29 10:41:15;;;;;;;4.93;2.57;;;;;;;;;;5063148;28;20194;-76
2023/12/29 10:43:52;;;;;;;7.13;3.10;;;;;;;;;;5063153;28;20182;-78
2023/12/29 10:46:20;;;;;;;8.20;3.40;;;;;;;;;;5047759;28;20695;-76
2023/12/29 10:48:48;;;;;;;5.67;3.13;;;;;;;;;;5037693;28;20325;-72
2023/12/29 10:51:26;;;;;;;6.13;2.13;;;;;;;;;;5046894;28;20221;-71
2023/12/29 10:53:55;;;;;;;3.87;2.10;;;;;;;;;;5050990;28;20226;-75
2023/12/29 10:56:22;;;;;;;5.67;2.37;;;;;;;;;;5046645;28;20636;-77
2023/12/29 10:58:59;;;;;;;4.43;2.53;;;;;;;;;;5046278;28;20221;-75
2023/12/29 11:01:31;;;;;;;3.00;1.83;;;;;;;;;;5063342;28;20259;-74
2023/12/29 11:04:02;;;;;;;5.10;2.03;;;;;;;;;;5065108;28;20177;-74
2023/12/29 11:06:30;;;;;;;2.03;1.20;;;;;;;;;;5063025;28;20251;-73
2023/12/29 11:08:57;;;;;;;2.23;1.30;;;;;;;;;;5049708;28;20649;-73
2023/12/29 11:11:25;;;;;;;5.17;1.20;;;;;;;;;;5067752;28;20288;-75
2023/12/29 11:13:53;;;;;;;5.40;1.70;;;;;;;;;;5051049;28;20571;-78
2023/12/29 11:16:21;;;;;;;2.67;1.70;;;;;;;;;;5072052;28;20277;-74
2023/12/29 11:18:50;;;;;;;2.07;1.30;;;;;;;;;;5025569;28;20249;-75
2023/12/29 11:21:19;;;;;;;4.33;1.40;;;;;;;;;;5047080;28;20330;-77
2023/12/29 11:23:46;;;;;;;6.87;1.83;;;;;;;;;;5030215;28;20218;-76
2023/12/29 11:26:18;;;;;;;1.93;1.33;;;;;;;;;;5048515;28;20890;-73
2023/12/29 11:28:50;;;;;;;4.60;1.13;;;;;;;;;;5030124;28;20190;-76
2023/12/29 11:31:16;;;;;;;6.13;1.40;;;;;;;;;;5046838;28;20199;-76
2023/12/29 11:33:46;;;;;;;4.33;1.23;;;;;;;;;;5041491;28;20187;-75
2023/12/29 11:40:10;;;;;;;1.57;0.90;;;;;;;;;;5067732;28;20193;-73
2023/12/29 11:42:54;;;;;;;5.63;1.90;;;;;;;;;;5066501;28;20186;-72
2023/12/29 11:45:26;;;;;;;6.13;1.57;;;;;;;;;;5050112;28;20233;-72
2023/12/29 11:47:57;;;;;;;4.30;1.67;;;;;;;;;;5076290;28;20200;-72
2023/12/29 11:50:40;;;;;;;2.30;1.40;;;;;;;;;;5043245;28;20226;-72
2023/12/29 11:53:08;;;;;;;3.43;0.90;;;;;;;;;;5059337;28;20186;-71
2023/12/29 11:55:36;;;;;;;4.80;1.63;;;;;;;;;;5076718;28;20674;-71
2023/12/29 11:58:04;;;;;;;10.27;2.60;;;;;;;;;;5074975;28;20220;-78
2023/12/29 12:00:46;;;;;;;3.83;1.47;;;;;;;;;;5039192;28;20218;-71
2023/12/29 12:03:28;;;;;;;6.10;1.83;;;;;;;;;;5038931;28;20163;-71
2023/12/29 12:06:02;;;;;;;2.93;1.40;;;;;;;;;;5056837;28;20254;-71
2023/12/29 12:12:40;;;;;;;4.00;1.30;;;;;;;;;;5056265;28;20165;-71
2023/12/29 12:15:26;;;;;;;6.53;2.23;;;;;;;;;;5054539;28;20202;-75
2023/12/29 12:17:54;;;;;;;4.67;1.37;;;;;;;;;;5073001;28;20268;-74
2023/12/29 12:20:21;;;;;;;7.37;1.67;;;;;;;;;;5021166;28;20514;-74
2023/12/29 12:22:49;;;;;;;10.57;2.70;;;;;;;;;;5054853;28;20229;-72
2023/12/29 12:25:17;;;;;;;6.73;2.23;;;;;;;;;;5055390;28;20277;-71
2023/12/29 12:27:45;;;;;;;6.93;1.73;;;;;;;;;;5038559;28;20708;-72
2023/12/29 12:30:16;;;;;;;8.13;2.03;;;;;;;;;;5054706;28;20183;-72
2023/12/29 12:33:00;;;;;;;6.70;1.60;;;;;;;;;;5057669;28;20520;-71
2023/12/29 12:35:29;;;;;;;12.93;2.10;;;;;;;;;;5022313;28;20205;-72
2023/12/29 12:38:09;;;;;;;3.90;1.63;;;;;;;;;;5071464;28;20281;-72
2023/12/29 12:40:38;;;;;;;7.90;2.03;;;;;;;;;;5053930;28;20271;-67
2023/12/29 12:43:24;;;;;;;4.53;1.60;;;;;;;;;;5053961;28;20187;-67
2023/12/29 12:46:05;;;;;;;2.33;1.20;;;;;;;;;;5044804;28;20222;-69
2023/12/29 12:48:35;;;;;;;6.00;2.17;;;;;;;;;;5043577;28;20194;-67
2023/12/29 12:51:03;;;;;;;5.60;1.80;;;;;;;;;;5052495;28;20223;-68
2023/12/29 12:53:31;;;;;;;12.30;3.90;;;;;;;;;;5054020;28;20193;-67
2023/12/29 12:56:16;;;;;;;3.20;1.40;;;;;;;;;;5041644;28;20178;-66
2023/12/29 12:58:44;;;;;;;3.80;1.10;;;;;;;;;;5037697;28;20226;-67
2023/12/29 13:01:11;;;;;;;4.10;1.57;;;;;;;;;;5052883;28;20191;-67
2023/12/29 13:03:39;;;;;;;5.67;1.53;;;;;;;;;;5037703;28;20244;-67
2023/12/29 13:06:07;;;;;;;4.80;1.20;;;;;;;;;;5037964;28;20191;-67
2023/12/29 13:08:34;;;;;;;5.30;2.00;;;;;;;;;;5037638;28;20557;-72
2023/12/29 13:11:09;;;;;;;4.53;1.50;;;;;;;;;;5038632;28;20200;-74
2023/12/29 13:13:42;;;;;;;5.63;2.00;;;;;;;;;;5037741;28;20270;-73
2023/12/29 13:16:10;;;;;;;5.80;1.47;;;;;;;;;;5034157;28;20539;-72
2023/12/29 13:18:38;;;;;;;5.57;1.50;;;;;;;;;;5011281;28;20225;-72
2023/12/29 13:21:09;;;;;;;5.37;2.20;;;;;;;;;;5044470;28;20295;-72
2023/12/29 13:23:37;;;;;;;5.13;1.93;;;;;;;;;;5044268;28;20595;-72
2023/12/29 13:26:06;;;;;;;1.93;1.17;;;;;;;;;;5028521;28;20582;-70
2023/12/29 13:28:33;;;;;;;5.23;2.30;;;;;;;;;;5028569;28;20183;-67
2023/12/29 13:31:05;;;;;;;3.13;1.60;;;;;;;;;;5043185;28;21140;-73
2023/12/29 13:33:40;;;;;;;8.47;2.70;;;;;;;;;;5061369;28;20198;-74
2023/12/29 13:36:31;;;;;;;9.60;3.60;;;;;;;;;;5027937;28;20691;-74
2023/12/29 13:39:06;;;;;;;5.43;2.50;;;;;;;;;;5022087;28;20234;-71
2023/12/29 13:41:33;;;;;;;7.33;3.07;;;;;;;;;;5064367;28;20194;-74
2023/12/29 13:44:00;;;;;;;5.93;2.57;;;;;;;;;;5060752;28;20291;-74
2023/12/29 13:46:28;;;;;;;4.57;1.87;;;;;;;;;;5011251;28;20191;-72
2023/12/29 13:48:55;;;;;;;4.47;2.00;;;;;;;;;;5027303;28;20589;-72
2023/12/29 13:51:25;;;;;;;5.10;1.63;;;;;;;;;;5028147;28;20689;-72
2023/12/29 13:53:59;;;;;;;2.70;1.70;;;;;;;;;;5029412;28;20597;-72
2023/12/29 13:56:26;;;;;;;3.73;1.70;;;;;;;;;;5045856;28;20634;-71
2023/12/29 13:58:54;;;;;;;4.43;1.90;;;;;;;;;;5046648;28;20217;-71
2023/12/29 14:01:22;;;;;;;4.40;1.90;;;;;;;;;;5063107;28;20269;-72
2023/12/29 14:03:51;;;;;;;3.13;1.33;;;;;;;;;;5044543;28;20187;-71
2023/12/29 14:06:24;;;;;;;3.73;1.67;;;;;;;;;;5044294;28;20658;-72
2023/12/29 14:09:16;;;;;;;3.03;1.43;;;;;;;;;;5044041;28;20167;-72
2023/12/29 14:11:45;;;;;;;3.13;1.63;;;;;;;;;;5044387;28;20190;-81
2023/12/29 14:14:13;;;;;;;6.43;1.67;;;;;;;;;;5042820;28;20179;-70
2023/12/29 14:16:40;;;;;;;4.00;1.33;;;;;;;;;;5010864;28;20203;-68
2023/12/29 14:19:07;;;;;;;4.93;1.60;;;;;;;;;;5044982;28;20211;-73
2023/12/29 14:21:35;;;;;;;4.30;1.70;;;;;;;;;;5060518;28;22198;-73
2023/12/29 14:24:03;;;;;;;5.27;2.00;;;;;;;;;;5034038;28;20227;-71
2023/12/29 14:30:31;;;;;;;6.63;1.80;;;;;;;;;;5064798;28;20188;-73
2023/12/29 14:33:01;;;;;;;5.20;1.57;;;;;;;;;;5047288;28;20190;-71
2023/12/29 14:35:28;;;;;;;2.30;1.53;;;;;;;;;;5063089;28;20197;-71
2023/12/29 14:37:56;;;;;;;4.63;1.90;;;;;;;;;;5063112;28;20188;-71
2023/12/29 14:40:23;;;;;;;5.63;1.93;;;;;;;;;;5045067;28;20249;-72
2023/12/29 14:42:50;;;;;;;7.27;2.43;;;;;;;;;;5028447;28;20283;-73
2023/12/29 14:45:17;;;;;;;6.17;2.40;;;;;;;;;;5059722;28;20193;-71
2023/12/29 14:47:45;;;;;;;4.20;2.50;;;;;;;;;;5044437;28;20191;-70
2023/12/29 14:50:13;;;;;;;6.80;2.30;;;;;;;;;;5043321;28;20237;-70
2023/12/29 14:52:39;;;;;;;5.70;1.93;;;;;;;;;;5026749;28;20217;-71
2023/12/29 14:55:06;;;;;;;5.60;2.50;;;;;;;;;;5044027;28;20201;-71
2023/12/29 14:57:33;;;;;;;7.67;2.80;;;;;;;;;;5042618;28;20191;-71
2023/12/29 15:00:00;;;;;;;6.97;2.60;;;;;;;;;;5026710;28;20298;-73
2023/12/29 15:02:27;;;;;;;11.23;2.97;;;;;;;;;;5043001;28;20543;-73
2023/12/29 15:04:54;;;;;;;8.80;3.07;;;;;;;;;;5050640;28;20356;-71
2023/12/29 15:07:23;;;;;;;5.83;1.77;;;;;;;;;;5062854;28;20200;-72
2023/12/29 15:09:51;;;;;;;6.50;2.90;;;;;;;;;;5056905;28;20213;-71
2023/12/29 15:12:19;;;;;;;8.43;2.97;;;;;;;;;;5055174;28;20190;-71
2023/12/29 15:14:46;;;;;;;9.97;3.33;;;;;;;;;;5043443;28;20187;-72
2023/12/29 15:17:13;;;;;;;5.33;2.77;;;;;;;;;;5036921;28;20200;-73
2023/12/29 15:19:41;;;;;;;5.63;2.20;;;;;;;;;;5062425;28;20221;-72
2023/12/29 15:22:11;;;;;;;7.23;2.70;;;;;;;;;;5064293;28;20190;-72
2023/12/29 15:24:41;;;;;;;4.70;2.23;;;;;;;;;;5064201;28;20292;-72
2023/12/29 15:27:08;;;;;;;4.90;2.03;;;;;;;;;;5050421;28;20186;-73
2023/12/29 15:29:36;;;;;;;6.47;2.50;;;;;;;;;;5033619;28;20187;-71
2023/12/29 15:32:03;;;;;;;5.23;2.37;;;;;;;;;;5053476;28;20522;-71
2023/12/29 15:34:32;;;;;;;5.87;2.40;;;;;;;;;;5053228;28;20222;-71
2023/12/29 15:36:58;;;;;;;5.30;2.73;;;;;;;;;;5052289;28;20218;-71
2023/12/29 15:39:25;;;;;;;6.47;2.20;;;;;;;;;;5051702;28;20276;-71
2023/12/29 15:41:52;;;;;;;2.90;1.67;;;;;;;;;;5052057;28;20183;-71
2023/12/29 15:44:19;;;;;;;6.87;2.87;;;;;;;;;;5053070;28;20179;-70
2023/12/29 15:46:46;;;;;;;4.37;2.37;;;;;;;;;;5052136;28;20178;-71
2023/12/29 15:49:12;;;;;;;5.93;2.50;;;;;;;;;;5051689;28;20190;-71
2023/12/29 15:51:40;;;;;;;12.13;4.17;;;;;;;;;;5035446;28;20227;-71